sensor_id;sensor_type;location;lat;lon;timestamp;P1;durP1;ratioP1;P2;durP2;ratioP2
72053;SDS011;59918;51.280;7.950;2023-11-21T01:25:12;25.50;;;12.27;;
72053;SDS011;59918;51.280;7.950;2023-11-21T01:27:38;23.52;;;11.43;;
72053;SDS011;59918;51.280;7.950;2023-11-21T01:30:03;22.73;;;10.85;;
72053;SDS011;59918;51.280;7.950;2023-11-21T01:32:29;26.23;;;10.77;;
72053;SDS011;59918;51.280;7.950;2023-11-21T01:34:54;21.33;;;11.57;;
72053;SDS011;59918;51.280;7.950;2023-11-21T01:37:19;19.23;;;10.32;;
72053;SDS011;59918;51.280;7.950;2023-11-21T01:39:44;19.98;;;10.10;;
72053;SDS011;59918;51.280;7.950;2023-11-21T01:42:10;25.10;;;10.55;;
72053;SDS011;59918;51.280;7.950;2023-11-21T01:44:35;18.63;;;9.23;;
72053;SDS011;59918;51.280;7.950;2023-11-21T01:47:01;16.65;;;10.18;;
72053;SDS011;59918;51.280;7.950;2023-11-21T01:49:26;20.40;;;10.85;;
72053;SDS011;59918;51.280;7.950;2023-11-21T01:51:51;28.52;;;9.63;;
72053;SDS011;59918;51.280;7.950;2023-11-21T01:54:17;15.57;;;8.80;;
72053;SDS011;59918;51.280;7.950;2023-11-21T03:28:11;17.00;;;9.15;;
72053;SDS011;59918;51.280;7.950;2023-11-21T03:30:37;15.13;;;9.13;;
72053;SDS011;59918;51.280;7.950;2023-11-21T03:33:02;18.27;;;9.68;;
72053;SDS011;59918;51.280;7.950;2023-11-21T03:35:27;13.40;;;9.02;;
72053;SDS011;59918;51.280;7.950;2023-11-21T03:37:53;21.08;;;8.93;;
72053;SDS011;59918;51.280;7.950;2023-11-21T03:40:18;24.05;;;8.77;;
72053;SDS011;59918;51.280;7.950;2023-11-21T03:42:43;22.73;;;11.25;;
72053;SDS011;59918;51.280;7.950;2023-11-21T03:45:09;21.13;;;10.13;;
72053;SDS011;59918;51.280;7.950;2023-11-21T03:47:34;19.52;;;8.52;;
72053;SDS011;59918;51.280;7.950;2023-11-21T03:49:59;13.38;;;7.93;;
72053;SDS011;59918;51.280;7.950;2023-11-21T03:52:27;15.98;;;8.88;;
72053;SDS011;59918;51.280;7.950;2023-11-21T03:54:52;17.88;;;8.13;;
72053;SDS011;59918;51.280;7.950;2023-11-21T03:57:18;13.70;;;8.73;;
72053;SDS011;59918;51.280;7.950;2023-11-21T03:59:43;15.00;;;7.28;;
72053;SDS011;59918;51.280;7.950;2023-11-21T04:02:09;17.58;;;9.07;;
72053;SDS011;59918;51.280;7.950;2023-11-21T04:04:34;15.20;;;8.70;;
72053;SDS011;59918;51.280;7.950;2023-11-21T04:07:00;20.33;;;10.48;;
72053;SDS011;59918;51.280;7.950;2023-11-21T04:09:25;22.40;;;11.07;;
72053;SDS011;59918;51.280;7.950;2023-11-21T04:11:51;18.80;;;10.15;;
72053;SDS011;59918;51.280;7.950;2023-11-21T04:14:17;28.55;;;11.13;;
72053;SDS011;59918;51.280;7.950;2023-11-21T04:16:43;23.95;;;12.00;;
72053;SDS011;59918;51.280;7.950;2023-11-21T04:19:08;27.83;;;13.60;;
72053;SDS011;59918;51.280;7.950;2023-11-21T04:21:34;29.75;;;15.27;;
72053;SDS011;59918;51.280;7.950;2023-11-21T04:23:59;28.42;;;15.45;;
72053;SDS011;59918;51.280;7.950;2023-11-21T04:26:24;28.50;;;12.38;;
72053;SDS011;59918;51.280;7.950;2023-11-21T04:28:49;23.02;;;11.57;;
72053;SDS011;59918;51.280;7.950;2023-11-21T04:31:14;19.75;;;10.75;;
72053;SDS011;59918;51.280;7.950;2023-11-21T04:33:40;22.63;;;11.50;;
72053;SDS011;59918;51.280;7.950;2023-11-21T04:36:05;28.00;;;13.60;;
72053;SDS011;59918;51.280;7.950;2023-11-21T04:38:31;34.65;;;15.80;;
72053;SDS011;59918;51.280;7.950;2023-11-21T04:40:56;31.92;;;14.68;;
72053;SDS011;59918;51.280;7.950;2023-11-21T04:43:21;36.95;;;16.27;;
72053;SDS011;59918;51.280;7.950;2023-11-21T04:45:46;44.42;;;18.30;;
72053;SDS011;59918;51.280;7.950;2023-11-21T04:48:11;54.38;;;21.50;;
72053;SDS011;59918;51.280;7.950;2023-11-21T04:50:37;52.80;;;22.13;;
72053;SDS011;59918;51.280;7.950;2023-11-21T04:53:02;57.67;;;23.27;;
72053;SDS011;59918;51.280;7.950;2023-11-21T04:55:27;65.40;;;24.33;;
72053;SDS011;59918;51.280;7.950;2023-11-21T04:57:53;65.38;;;25.40;;
72053;SDS011;59918;51.280;7.950;2023-11-21T05:00:18;54.47;;;23.48;;
72053;SDS011;59918;51.280;7.950;2023-11-21T05:02:44;65.70;;;23.98;;
72053;SDS011;59918;51.280;7.950;2023-11-21T05:05:09;65.00;;;24.00;;
72053;SDS011;59918;51.280;7.950;2023-11-21T05:07:34;65.82;;;24.13;;
72053;SDS011;59918;51.280;7.950;2023-11-21T05:09:59;63.60;;;22.25;;
72053;SDS011;59918;51.280;7.950;2023-11-21T05:12:25;60.15;;;23.10;;
72053;SDS011;59918;51.280;7.950;2023-11-21T05:14:50;65.20;;;24.10;;
72053;SDS011;59918;51.280;7.950;2023-11-21T05:17:16;70.05;;;24.80;;
72053;SDS011;59918;51.280;7.950;2023-11-21T05:19:41;66.07;;;24.35;;
72053;SDS011;59918;51.280;7.950;2023-11-21T05:22:06;68.13;;;25.70;;
72053;SDS011;59918;51.280;7.950;2023-11-21T05:24:32;61.13;;;25.75;;
72053;SDS011;59918;51.280;7.950;2023-11-21T05:26:57;71.47;;;24.65;;
72053;SDS011;59918;51.280;7.950;2023-11-21T05:29:22;71.22;;;24.83;;
72053;SDS011;59918;51.280;7.950;2023-11-21T05:31:47;73.32;;;25.33;;
72053;SDS011;59918;51.280;7.950;2023-11-21T05:34:12;66.03;;;26.00;;
72053;SDS011;59918;51.280;7.950;2023-11-21T05:36:38;72.18;;;26.08;;
72053;SDS011;59918;51.280;7.950;2023-11-21T05:39:03;68.13;;;25.35;;
72053;SDS011;59918;51.280;7.950;2023-11-21T05:41:28;70.20;;;25.98;;
72053;SDS011;59918;51.280;7.950;2023-11-21T05:43:53;67.65;;;25.60;;
72053;SDS011;59918;51.280;7.950;2023-11-21T05:46:19;69.03;;;24.63;;
72053;SDS011;59918;51.280;7.950;2023-11-21T05:48:44;68.03;;;25.95;;
72053;SDS011;59918;51.280;7.950;2023-11-21T05:51:09;68.50;;;25.05;;
72053;SDS011;59918;51.280;7.950;2023-11-21T05:53:35;69.25;;;24.45;;
72053;SDS011;59918;51.280;7.950;2023-11-21T05:56:00;67.13;;;24.30;;
72053;SDS011;59918;51.280;7.950;2023-11-21T05:58:25;59.97;;;23.38;;
72053;SDS011;59918;51.280;7.950;2023-11-21T06:00:50;69.97;;;24.50;;
72053;SDS011;59918;51.280;7.950;2023-11-21T06:03:16;65.50;;;24.17;;
72053;SDS011;59918;51.280;7.950;2023-11-21T06:05:41;63.47;;;25.98;;
72053;SDS011;59918;51.280;7.950;2023-11-21T06:08:06;64.97;;;25.00;;
72053;SDS011;59918;51.280;7.950;2023-11-21T06:10:32;75.35;;;24.95;;
72053;SDS011;59918;51.280;7.950;2023-11-21T06:12:57;67.63;;;24.92;;
72053;SDS011;59918;51.280;7.950;2023-11-21T06:15:22;63.10;;;25.08;;
72053;SDS011;59918;51.280;7.950;2023-11-21T06:17:48;59.58;;;24.55;;
72053;SDS011;59918;51.280;7.950;2023-11-21T06:20:13;68.03;;;24.77;;
72053;SDS011;59918;51.280;7.950;2023-11-21T06:22:38;66.18;;;24.25;;
72053;SDS011;59918;51.280;7.950;2023-11-21T06:25:05;70.13;;;26.08;;
72053;SDS011;59918;51.280;7.950;2023-11-21T06:27:31;68.60;;;24.10;;
72053;SDS011;59918;51.280;7.950;2023-11-21T06:29:57;68.70;;;25.85;;
72053;SDS011;59918;51.280;7.950;2023-11-21T06:32:22;65.65;;;24.88;;
72053;SDS011;59918;51.280;7.950;2023-11-21T06:34:47;67.10;;;22.75;;
72053;SDS011;59918;51.280;7.950;2023-11-21T06:37:13;69.75;;;22.65;;
72053;SDS011;59918;51.280;7.950;2023-11-21T06:39:38;62.00;;;24.42;;
72053;SDS011;59918;51.280;7.950;2023-11-21T06:42:03;59.97;;;23.80;;
72053;SDS011;59918;51.280;7.950;2023-11-21T06:44:29;63.90;;;24.13;;
72053;SDS011;59918;51.280;7.950;2023-11-21T06:46:54;63.50;;;20.63;;
72053;SDS011;59918;51.280;7.950;2023-11-21T06:49:19;67.68;;;22.50;;
72053;SDS011;59918;51.280;7.950;2023-11-21T06:51:44;71.43;;;22.70;;
72053;SDS011;59918;51.280;7.950;2023-11-21T06:54:09;66.35;;;23.33;;
72053;SDS011;59918;51.280;7.950;2023-11-21T06:56:35;66.68;;;22.25;;
72053;SDS011;59918;51.280;7.950;2023-11-21T06:59:00;59.50;;;21.38;;
72053;SDS011;59918;51.280;7.950;2023-11-21T07:01:25;61.65;;;21.52;;
72053;SDS011;59918;51.280;7.950;2023-11-21T07:03:50;72.47;;;21.45;;
72053;SDS011;59918;51.280;7.950;2023-11-21T07:06:15;57.10;;;20.17;;
72053;SDS011;59918;51.280;7.950;2023-11-21T07:08:41;69.35;;;22.65;;
72053;SDS011;59918;51.280;7.950;2023-11-21T07:11:06;71.78;;;24.35;;
72053;SDS011;59918;51.280;7.950;2023-11-21T07:13:31;62.80;;;22.92;;
72053;SDS011;59918;51.280;7.950;2023-11-21T07:15:59;65.00;;;22.42;;
72053;SDS011;59918;51.280;7.950;2023-11-21T07:18:24;66.85;;;22.80;;
72053;SDS011;59918;51.280;7.950;2023-11-21T07:20:49;68.43;;;21.50;;
72053;SDS011;59918;51.280;7.950;2023-11-21T07:23:15;59.47;;;19.50;;
72053;SDS011;59918;51.280;7.950;2023-11-21T07:25:40;55.95;;;20.10;;
72053;SDS011;59918;51.280;7.950;2023-11-21T07:28:05;48.97;;;20.45;;
72053;SDS011;59918;51.280;7.950;2023-11-21T07:30:30;60.95;;;18.80;;
72053;SDS011;59918;51.280;7.950;2023-11-21T07:32:56;60.72;;;18.98;;
72053;SDS011;59918;51.280;7.950;2023-11-21T07:35:21;57.67;;;19.08;;
72053;SDS011;59918;51.280;7.950;2023-11-21T07:37:46;60.20;;;19.88;;
72053;SDS011;59918;51.280;7.950;2023-11-21T07:40:11;57.90;;;19.77;;
72053;SDS011;59918;51.280;7.950;2023-11-21T07:42:37;63.28;;;19.23;;
72053;SDS011;59918;51.280;7.950;2023-11-21T07:45:03;49.28;;;18.40;;
72053;SDS011;59918;51.280;7.950;2023-11-21T07:47:29;63.72;;;20.67;;
72053;SDS011;59918;51.280;7.950;2023-11-21T07:49:55;53.92;;;19.48;;
72053;SDS011;59918;51.280;7.950;2023-11-21T07:52:20;46.33;;;18.08;;
72053;SDS011;59918;51.280;7.950;2023-11-21T07:54:45;55.80;;;19.70;;
72053;SDS011;59918;51.280;7.950;2023-11-21T07:57:10;41.78;;;19.08;;
72053;SDS011;59918;51.280;7.950;2023-11-21T07:59:36;55.20;;;20.20;;
72053;SDS011;59918;51.280;7.950;2023-11-21T08:02:01;54.30;;;19.42;;
72053;SDS011;59918;51.280;7.950;2023-11-21T08:04:26;48.90;;;17.85;;
72053;SDS011;59918;51.280;7.950;2023-11-21T08:06:51;45.42;;;19.75;;
72053;SDS011;59918;51.280;7.950;2023-11-21T08:09:17;46.70;;;19.52;;
72053;SDS011;59918;51.280;7.950;2023-11-21T08:11:42;49.20;;;19.63;;
72053;SDS011;59918;51.280;7.950;2023-11-21T08:14:07;47.67;;;21.08;;
72053;SDS011;59918;51.280;7.950;2023-11-21T08:16:32;56.17;;;20.27;;
72053;SDS011;59918;51.280;7.950;2023-11-21T08:18:58;53.97;;;19.25;;
72053;SDS011;59918;51.280;7.950;2023-11-21T08:21:23;50.50;;;18.55;;
72053;SDS011;59918;51.280;7.950;2023-11-21T08:23:48;40.88;;;18.88;;
72053;SDS011;59918;51.280;7.950;2023-11-21T08:26:15;40.83;;;19.52;;
72053;SDS011;59918;51.280;7.950;2023-11-21T08:28:41;47.15;;;18.33;;
72053;SDS011;59918;51.280;7.950;2023-11-21T08:31:06;40.15;;;18.48;;
72053;SDS011;59918;51.280;7.950;2023-11-21T08:33:31;37.25;;;18.50;;
72053;SDS011;59918;51.280;7.950;2023-11-21T08:35:56;38.17;;;17.30;;
72053;SDS011;59918;51.280;7.950;2023-11-21T08:38:22;50.42;;;19.77;;
72053;SDS011;59918;51.280;7.950;2023-11-21T08:40:47;53.65;;;22.48;;
72053;SDS011;59918;51.280;7.950;2023-11-21T08:43:12;45.50;;;21.05;;
72053;SDS011;59918;51.280;7.950;2023-11-21T08:45:37;43.72;;;19.25;;
72053;SDS011;59918;51.280;7.950;2023-11-21T08:48:03;41.95;;;18.80;;
72053;SDS011;59918;51.280;7.950;2023-11-21T08:50:28;46.08;;;18.90;;
72053;SDS011;59918;51.280;7.950;2023-11-21T08:52:54;44.03;;;19.15;;
72053;SDS011;59918;51.280;7.950;2023-11-21T08:55:19;41.42;;;17.55;;
72053;SDS011;59918;51.280;7.950;2023-11-21T08:57:44;41.72;;;17.88;;
72053;SDS011;59918;51.280;7.950;2023-11-21T09:00:10;38.42;;;18.38;;
72053;SDS011;59918;51.280;7.950;2023-11-21T09:02:36;41.35;;;19.33;;
72053;SDS011;59918;51.280;7.950;2023-11-21T09:05:01;40.97;;;18.25;;
72053;SDS011;59918;51.280;7.950;2023-11-21T09:07:26;41.78;;;19.63;;
72053;SDS011;59918;51.280;7.950;2023-11-21T09:09:51;46.92;;;19.23;;
72053;SDS011;59918;51.280;7.950;2023-11-21T09:12:17;43.20;;;20.08;;
72053;SDS011;59918;51.280;7.950;2023-11-21T09:14:42;44.47;;;20.55;;
72053;SDS011;59918;51.280;7.950;2023-11-21T09:17:08;54.20;;;19.98;;
72053;SDS011;59918;51.280;7.950;2023-11-21T09:19:34;40.63;;;19.48;;
72053;SDS011;59918;51.280;7.950;2023-11-21T09:22:00;42.92;;;20.10;;
72053;SDS011;59918;51.280;7.950;2023-11-21T09:24:25;44.33;;;20.20;;
72053;SDS011;59918;51.280;7.950;2023-11-21T09:26:50;41.83;;;19.90;;
72053;SDS011;59918;51.280;7.950;2023-11-21T09:29:15;39.97;;;18.92;;
72053;SDS011;59918;51.280;7.950;2023-11-21T09:31:40;46.47;;;19.48;;
72053;SDS011;59918;51.280;7.950;2023-11-21T09:34:06;39.88;;;19.80;;
72053;SDS011;59918;51.280;7.950;2023-11-21T09:36:31;44.42;;;19.90;;
72053;SDS011;59918;51.280;7.950;2023-11-21T09:38:56;41.22;;;20.45;;
72053;SDS011;59918;51.280;7.950;2023-11-21T09:41:25;41.60;;;20.02;;
72053;SDS011;59918;51.280;7.950;2023-11-21T09:43:59;44.72;;;20.98;;
72053;SDS011;59918;51.280;7.950;2023-11-21T09:46:25;45.63;;;21.67;;
72053;SDS011;59918;51.280;7.950;2023-11-21T11:20:22;30.85;;;14.27;;
72053;SDS011;59918;51.280;7.950;2023-11-21T11:22:56;30.48;;;15.23;;
72053;SDS011;59918;51.280;7.950;2023-11-21T11:28:38;30.85;;;13.02;;
72053;SDS011;59918;51.280;7.950;2023-11-21T11:31:14;30.80;;;13.30;;
72053;SDS011;59918;51.280;7.950;2023-11-21T11:34:05;35.33;;;13.95;;
72053;SDS011;59918;51.280;7.950;2023-11-21T11:36:44;30.50;;;11.55;;
72053;SDS011;59918;51.280;7.950;2023-11-21T11:39:29;25.50;;;11.27;;
72053;SDS011;59918;51.280;7.950;2023-11-21T11:42:01;30.08;;;12.63;;
72053;SDS011;59918;51.280;7.950;2023-11-21T11:47:12;31.75;;;12.82;;
72053;SDS011;59918;51.280;7.950;2023-11-21T11:49:38;26.83;;;11.00;;
72053;SDS011;59918;51.280;7.950;2023-11-21T11:55:17;34.67;;;14.35;;
72053;SDS011;59918;51.280;7.950;2023-11-21T11:57:44;25.92;;;11.57;;
72053;SDS011;59918;51.280;7.950;2023-11-21T12:00:20;23.63;;;11.13;;
72053;SDS011;59918;51.280;7.950;2023-11-21T12:02:48;18.17;;;9.43;;
72053;SDS011;59918;51.280;7.950;2023-11-21T12:05:15;23.58;;;10.32;;
72053;SDS011;59918;51.280;7.950;2023-11-21T12:07:43;18.70;;;10.90;;
72053;SDS011;59918;51.280;7.950;2023-11-21T12:10:18;17.08;;;9.52;;
72053;SDS011;59918;51.280;7.950;2023-11-21T12:12:45;14.32;;;8.13;;
72053;SDS011;59918;51.280;7.950;2023-11-21T12:15:15;16.15;;;8.90;;
72053;SDS011;59918;51.280;7.950;2023-11-21T12:17:41;20.30;;;10.15;;
72053;SDS011;59918;51.280;7.950;2023-11-21T12:20:08;17.27;;;9.27;;
72053;SDS011;59918;51.280;7.950;2023-11-21T12:22:33;18.65;;;9.70;;
72053;SDS011;59918;51.280;7.950;2023-11-21T12:25:00;20.48;;;10.45;;
72053;SDS011;59918;51.280;7.950;2023-11-21T12:27:25;16.95;;;9.35;;
72053;SDS011;59918;51.280;7.950;2023-11-21T12:29:50;16.63;;;9.23;;
72053;SDS011;59918;51.280;7.950;2023-11-21T12:32:15;19.83;;;9.55;;
72053;SDS011;59918;51.280;7.950;2023-11-21T12:34:41;17.60;;;9.85;;
72053;SDS011;59918;51.280;7.950;2023-11-21T12:37:06;16.60;;;10.63;;
72053;SDS011;59918;51.280;7.950;2023-11-21T12:39:31;20.02;;;10.57;;
72053;SDS011;59918;51.280;7.950;2023-11-21T12:41:57;18.83;;;10.38;;
72053;SDS011;59918;51.280;7.950;2023-11-21T12:44:22;18.98;;;10.02;;
72053;SDS011;59918;51.280;7.950;2023-11-21T12:46:47;23.17;;;9.82;;
72053;SDS011;59918;51.280;7.950;2023-11-21T12:49:13;16.73;;;8.93;;
72053;SDS011;59918;51.280;7.950;2023-11-21T12:51:38;16.98;;;9.27;;
72053;SDS011;59918;51.280;7.950;2023-11-21T12:54:03;19.58;;;10.02;;
72053;SDS011;59918;51.280;7.950;2023-11-21T12:56:29;17.13;;;9.65;;
72053;SDS011;59918;51.280;7.950;2023-11-21T12:58:54;19.25;;;9.32;;
72053;SDS011;59918;51.280;7.950;2023-11-21T13:01:19;20.77;;;9.50;;
72053;SDS011;59918;51.280;7.950;2023-11-21T13:03:48;17.33;;;8.88;;
72053;SDS011;59918;51.280;7.950;2023-11-21T13:06:15;17.08;;;8.13;;
72053;SDS011;59918;51.280;7.950;2023-11-21T13:08:40;20.30;;;8.07;;
72053;SDS011;59918;51.280;7.950;2023-11-21T13:11:05;24.27;;;11.63;;
72053;SDS011;59918;51.280;7.950;2023-11-21T13:13:31;12.52;;;7.13;;
72053;SDS011;59918;51.280;7.950;2023-11-21T13:15:57;11.93;;;7.00;;
72053;SDS011;59918;51.280;7.950;2023-11-21T13:18:27;13.18;;;6.88;;
72053;SDS011;59918;51.280;7.950;2023-11-21T13:20:53;11.77;;;7.35;;
72053;SDS011;59918;51.280;7.950;2023-11-21T13:23:20;16.77;;;8.23;;
72053;SDS011;59918;51.280;7.950;2023-11-21T13:25:45;18.23;;;10.15;;
72053;SDS011;59918;51.280;7.950;2023-11-21T13:28:11;21.45;;;10.13;;
72053;SDS011;59918;51.280;7.950;2023-11-21T13:30:36;22.75;;;11.07;;
72053;SDS011;59918;51.280;7.950;2023-11-21T13:33:02;29.13;;;12.13;;
72053;SDS011;59918;51.280;7.950;2023-11-21T13:35:28;41.47;;;12.70;;
72053;SDS011;59918;51.280;7.950;2023-11-21T13:37:54;45.83;;;12.82;;
72053;SDS011;59918;51.280;7.950;2023-11-21T13:40:20;29.75;;;13.68;;
72053;SDS011;59918;51.280;7.950;2023-11-21T13:42:45;31.55;;;14.55;;
72053;SDS011;59918;51.280;7.950;2023-11-21T13:45:11;53.70;;;14.27;;
72053;SDS011;59918;51.280;7.950;2023-11-21T13:47:36;76.90;;;14.65;;
72053;SDS011;59918;51.280;7.950;2023-11-21T13:50:01;64.53;;;15.95;;
72053;SDS011;59918;51.280;7.950;2023-11-21T13:52:27;66.15;;;14.73;;
72053;SDS011;59918;51.280;7.950;2023-11-21T13:54:52;62.75;;;16.25;;
72053;SDS011;59918;51.280;7.950;2023-11-21T13:57:17;68.97;;;16.85;;
72053;SDS011;59918;51.280;7.950;2023-11-21T13:59:42;52.53;;;15.88;;
72053;SDS011;59918;51.280;7.950;2023-11-21T14:02:08;67.20;;;16.88;;
72053;SDS011;59918;51.280;7.950;2023-11-21T14:04:33;56.45;;;17.00;;
72053;SDS011;59918;51.280;7.950;2023-11-21T14:06:58;39.90;;;16.48;;
72053;SDS011;59918;51.280;7.950;2023-11-21T14:09:23;43.90;;;15.93;;
72053;SDS011;59918;51.280;7.950;2023-11-21T14:11:52;42.13;;;17.00;;
72053;SDS011;59918;51.280;7.950;2023-11-21T14:14:19;35.97;;;14.65;;
72053;SDS011;59918;51.280;7.950;2023-11-21T14:16:46;37.25;;;14.82;;
72053;SDS011;59918;51.280;7.950;2023-11-21T14:19:11;28.27;;;12.18;;
72053;SDS011;59918;51.280;7.950;2023-11-21T14:21:37;27.42;;;11.77;;
72053;SDS011;59918;51.280;7.950;2023-11-21T14:24:02;26.00;;;11.82;;
72053;SDS011;59918;51.280;7.950;2023-11-21T14:26:27;26.70;;;12.70;;
72053;SDS011;59918;51.280;7.950;2023-11-21T14:28:52;27.10;;;12.02;;
72053;SDS011;59918;51.280;7.950;2023-11-21T14:31:18;19.83;;;10.05;;
72053;SDS011;59918;51.280;7.950;2023-11-21T14:33:46;11.57;;;7.43;;
72053;SDS011;59918;51.280;7.950;2023-11-21T14:36:11;12.88;;;6.57;;
72053;SDS011;59918;51.280;7.950;2023-11-21T14:38:37;10.63;;;6.53;;
72053;SDS011;59918;51.280;7.950;2023-11-21T14:41:02;5.32;;;4.15;;
72053;SDS011;59918;51.280;7.950;2023-11-21T14:43:27;10.43;;;6.10;;
72053;SDS011;59918;51.280;7.950;2023-11-21T14:45:53;9.50;;;6.18;;
72053;SDS011;59918;51.280;7.950;2023-11-21T14:48:18;5.70;;;5.13;;
72053;SDS011;59918;51.280;7.950;2023-11-21T14:50:43;8.07;;;7.25;;
72053;SDS011;59918;51.280;7.950;2023-11-21T14:53:09;10.23;;;8.70;;
72053;SDS011;59918;51.280;7.950;2023-11-21T14:55:35;8.38;;;7.25;;
72053;SDS011;59918;51.280;7.950;2023-11-21T14:58:00;9.18;;;6.20;;
72053;SDS011;59918;51.280;7.950;2023-11-21T15:00:26;12.68;;;7.40;;
72053;SDS011;59918;51.280;7.950;2023-11-21T15:02:51;13.35;;;7.93;;
72053;SDS011;59918;51.280;7.950;2023-11-21T15:05:16;25.35;;;10.35;;
72053;SDS011;59918;51.280;7.950;2023-11-21T15:07:41;38.20;;;10.05;;
72053;SDS011;59918;51.280;7.950;2023-11-21T15:10:07;44.03;;;9.80;;
72053;SDS011;59918;51.280;7.950;2023-11-21T15:12:32;53.65;;;9.05;;
72053;SDS011;59918;51.280;7.950;2023-11-21T15:14:57;42.70;;;10.38;;
72053;SDS011;59918;51.280;7.950;2023-11-21T15:17:23;71.93;;;10.43;;
72053;SDS011;59918;51.280;7.950;2023-11-21T15:19:48;70.40;;;10.27;;
72053;SDS011;59918;51.280;7.950;2023-11-21T15:22:14;65.75;;;10.25;;
72053;SDS011;59918;51.280;7.950;2023-11-21T15:24:39;34.10;;;10.02;;
72053;SDS011;59918;51.280;7.950;2023-11-21T15:27:04;11.27;;;8.82;;
72053;SDS011;59918;51.280;7.950;2023-11-21T15:29:29;11.85;;;8.30;;
72053;SDS011;59918;51.280;7.950;2023-11-21T15:31:55;10.82;;;8.18;;
72053;SDS011;59918;51.280;7.950;2023-11-21T15:34:20;14.98;;;10.02;;
72053;SDS011;59918;51.280;7.950;2023-11-21T15:36:45;15.05;;;10.30;;
72053;SDS011;59918;51.280;7.950;2023-11-21T15:39:10;16.50;;;11.38;;
72053;SDS011;59918;51.280;7.950;2023-11-21T15:41:38;18.63;;;10.13;;
72053;SDS011;59918;51.280;7.950;2023-11-21T15:44:04;46.00;;;13.13;;
72053;SDS011;59918;51.280;7.950;2023-11-21T15:46:33;50.67;;;13.45;;
72053;SDS011;59918;51.280;7.950;2023-11-21T15:48:59;30.02;;;13.70;;
72053;SDS011;59918;51.280;7.950;2023-11-21T15:51:24;35.80;;;13.05;;
72053;SDS011;59918;51.280;7.950;2023-11-21T15:53:52;29.65;;;14.05;;
72053;SDS011;59918;51.280;7.950;2023-11-21T15:56:17;41.72;;;14.07;;
72053;SDS011;59918;51.280;7.950;2023-11-21T15:58:43;28.17;;;14.02;;
72053;SDS011;59918;51.280;7.950;2023-11-21T16:01:09;32.55;;;15.35;;
72053;SDS011;59918;51.280;7.950;2023-11-21T16:03:34;44.42;;;15.35;;
72053;SDS011;59918;51.280;7.950;2023-11-21T16:06:00;43.83;;;16.23;;
72053;SDS011;59918;51.280;7.950;2023-11-21T16:08:25;35.47;;;15.15;;
72053;SDS011;59918;51.280;7.950;2023-11-21T16:10:50;41.58;;;16.98;;
72053;SDS011;59918;51.280;7.950;2023-11-21T16:13:15;56.67;;;16.50;;
72053;SDS011;59918;51.280;7.950;2023-11-21T16:15:41;54.38;;;14.88;;
72053;SDS011;59918;51.280;7.950;2023-11-21T16:18:07;44.53;;;16.35;;
72053;SDS011;59918;51.280;7.950;2023-11-21T16:20:32;30.80;;;15.30;;
72053;SDS011;59918;51.280;7.950;2023-11-21T16:22:57;29.40;;;18.02;;
72053;SDS011;59918;51.280;7.950;2023-11-21T16:25:23;30.02;;;15.77;;
72053;SDS011;59918;51.280;7.950;2023-11-21T16:27:48;24.90;;;15.52;;
72053;SDS011;59918;51.280;7.950;2023-11-21T16:30:13;21.00;;;14.10;;
72053;SDS011;59918;51.280;7.950;2023-11-21T16:32:38;21.98;;;12.82;;
72053;SDS011;59918;51.280;7.950;2023-11-21T16:35:04;22.48;;;11.98;;
72053;SDS011;59918;51.280;7.950;2023-11-21T16:37:30;23.63;;;14.38;;
72053;SDS011;59918;51.280;7.950;2023-11-21T16:39:55;18.60;;;11.63;;
72053;SDS011;59918;51.280;7.950;2023-11-21T16:42:20;15.70;;;10.63;;
72053;SDS011;59918;51.280;7.950;2023-11-21T16:44:45;16.38;;;11.93;;
72053;SDS011;59918;51.280;7.950;2023-11-21T16:47:11;12.00;;;9.73;;
72053;SDS011;59918;51.280;7.950;2023-11-21T16:49:36;15.25;;;12.18;;
72053;SDS011;59918;51.280;7.950;2023-11-21T16:52:01;16.80;;;12.68;;
72053;SDS011;59918;51.280;7.950;2023-11-21T16:54:28;15.65;;;10.93;;
72053;SDS011;59918;51.280;7.950;2023-11-21T16:56:53;13.13;;;9.70;;
72053;SDS011;59918;51.280;7.950;2023-11-21T16:59:19;12.75;;;9.50;;
72053;SDS011;59918;51.280;7.950;2023-11-21T17:01:44;12.85;;;9.68;;
72053;SDS011;59918;51.280;7.950;2023-11-21T17:04:09;9.55;;;8.38;;
72053;SDS011;59918;51.280;7.950;2023-11-21T17:06:34;14.20;;;8.95;;
72053;SDS011;59918;51.280;7.950;2023-11-21T17:09:00;11.75;;;9.30;;
72053;SDS011;59918;51.280;7.950;2023-11-21T17:11:25;12.25;;;9.35;;
72053;SDS011;59918;51.280;7.950;2023-11-21T17:13:50;11.98;;;9.02;;
72053;SDS011;59918;51.280;7.950;2023-11-21T17:16:16;13.73;;;10.45;;
72053;SDS011;59918;51.280;7.950;2023-11-21T17:18:41;14.38;;;10.48;;
72053;SDS011;59918;51.280;7.950;2023-11-21T17:21:06;12.88;;;9.40;;
72053;SDS011;59918;51.280;7.950;2023-11-21T17:23:33;14.18;;;10.25;;
72053;SDS011;59918;51.280;7.950;2023-11-21T17:25:58;15.18;;;10.32;;
72053;SDS011;59918;51.280;7.950;2023-11-21T17:28:23;14.25;;;10.82;;
72053;SDS011;59918;51.280;7.950;2023-11-21T17:30:49;13.95;;;10.07;;
72053;SDS011;59918;51.280;7.950;2023-11-21T17:33:14;14.45;;;10.63;;
72053;SDS011;59918;51.280;7.950;2023-11-21T17:35:39;17.17;;;11.25;;
72053;SDS011;59918;51.280;7.950;2023-11-21T17:38:04;15.02;;;11.05;;
72053;SDS011;59918;51.280;7.950;2023-11-21T17:40:30;16.55;;;11.77;;
72053;SDS011;59918;51.280;7.950;2023-11-21T17:42:55;17.45;;;10.60;;
72053;SDS011;59918;51.280;7.950;2023-11-21T17:45:20;15.75;;;10.57;;
72053;SDS011;59918;51.280;7.950;2023-11-21T17:47:48;16.40;;;11.05;;
72053;SDS011;59918;51.280;7.950;2023-11-21T17:50:13;15.30;;;10.55;;
72053;SDS011;59918;51.280;7.950;2023-11-21T17:52:39;21.73;;;16.10;;
72053;SDS011;59918;51.280;7.950;2023-11-21T17:55:04;21.27;;;15.63;;
72053;SDS011;59918;51.280;7.950;2023-11-21T17:57:31;16.77;;;12.05;;
72053;SDS011;59918;51.280;7.950;2023-11-21T17:59:57;16.63;;;11.07;;
72053;SDS011;59918;51.280;7.950;2023-11-21T18:02:22;15.15;;;10.82;;
72053;SDS011;59918;51.280;7.950;2023-11-21T18:04:47;15.82;;;12.05;;
72053;SDS011;59918;51.280;7.950;2023-11-21T18:07:12;15.70;;;11.45;;
72053;SDS011;59918;51.280;7.950;2023-11-21T18:09:38;18.60;;;12.32;;
72053;SDS011;59918;51.280;7.950;2023-11-21T18:12:03;15.20;;;11.38;;
72053;SDS011;59918;51.280;7.950;2023-11-21T18:14:29;18.60;;;10.98;;
72053;SDS011;59918;51.280;7.950;2023-11-21T18:16:54;18.33;;;11.02;;
72053;SDS011;59918;51.280;7.950;2023-11-21T18:19:19;19.27;;;11.73;;
72053;SDS011;59918;51.280;7.950;2023-11-21T18:21:44;16.48;;;12.10;;
72053;SDS011;59918;51.280;7.950;2023-11-21T18:24:09;15.48;;;11.30;;
72053;SDS011;59918;51.280;7.950;2023-11-21T18:26:35;14.75;;;10.95;;
72053;SDS011;59918;51.280;7.950;2023-11-21T18:29:00;15.27;;;11.00;;
72053;SDS011;59918;51.280;7.950;2023-11-21T18:31:26;16.48;;;10.63;;
72053;SDS011;59918;51.280;7.950;2023-11-21T18:33:51;15.32;;;10.43;;
72053;SDS011;59918;51.280;7.950;2023-11-21T18:36:17;17.77;;;12.02;;
72053;SDS011;59918;51.280;7.950;2023-11-21T18:38:42;20.17;;;10.50;;
72053;SDS011;59918;51.280;7.950;2023-11-21T18:41:08;15.52;;;11.00;;
72053;SDS011;59918;51.280;7.950;2023-11-21T18:43:33;16.63;;;10.40;;
72053;SDS011;59918;51.280;7.950;2023-11-21T18:45:58;16.65;;;12.10;;
72053;SDS011;59918;51.280;7.950;2023-11-21T18:48:25;16.13;;;10.77;;
72053;SDS011;59918;51.280;7.950;2023-11-21T18:50:51;16.77;;;11.50;;